createdAt,value
2019-05-20T00:02:28.624Z,89.37
2019-05-20T00:17:29.104Z,89.06
2019-05-20T00:32:40.705Z,90.53
2019-05-20T00:47:34.476Z,91.38
2019-05-20T01:02:34.640Z,91.93
2019-05-20T01:17:34.842Z,93.49
2019-05-20T01:32:35.069Z,93.09
2019-05-20T01:47:35.195Z,93.89
2019-05-20T02:02:35.372Z,93.79
2019-05-20T02:17:35.622Z,93.48
2019-05-20T02:32:35.826Z,94.04
2019-05-20T02:47:36.046Z,95.30
2019-05-20T03:02:36.269Z,96.15
2019-05-20T03:17:36.341Z,96.51
2019-05-20T03:32:36.513Z,96.25
2019-05-20T03:47:36.600Z,95.94
2019-05-20T04:02:37.226Z,95.54
2019-05-20T04:17:37.373Z,94.79
2019-05-20T04:32:37.509Z,93.33
2019-05-20T04:47:37.723Z,91.52
2019-05-20T05:02:37.929Z,90.53
2019-05-20T05:17:38.051Z,88.84
2019-05-20T05:32:38.230Z,87.68
2019-05-20T05:47:38.310Z,85.08
2019-05-20T06:02:38.461Z,78.75
2019-05-20T06:17:38.644Z,77.04
2019-05-20T06:32:38.774Z,69.86
2019-05-20T06:47:38.934Z,62.57
2019-05-20T07:02:39.064Z,57.79
2019-05-20T07:17:39.181Z,52.24
2019-05-20T07:32:39.291Z,49.27
2019-05-20T07:47:39.406Z,46.74
2019-05-20T08:02:39.483Z,44.43
2019-05-20T08:17:39.711Z,44.84
2019-05-20T08:32:39.808Z,43.62
2019-05-20T08:47:40.450Z,42.47
2019-05-20T09:02:40.663Z,39.07
2019-05-20T09:17:40.836Z,38.06
2019-05-20T09:32:42.986Z,40.80
2019-05-20T09:47:43.129Z,42.02
2019-05-20T10:02:43.228Z,43.32
2019-05-20T10:17:43.426Z,38.62
2019-05-20T10:32:43.538Z,37.68
2019-05-20T10:47:43.654Z,36.60
2019-05-20T11:02:43.845Z,37.55
2019-05-20T11:17:43.961Z,37.40
2019-05-20T11:32:44.084Z,38.79
2019-05-20T11:47:44.273Z,40.90
2019-05-20T12:02:44.490Z,43.57
2019-05-20T12:17:44.800Z,45.23
2019-05-20T12:32:44.958Z,46.88
2019-05-20T12:47:45.204Z,44.83
2019-05-20T13:02:45.437Z,41.59
2019-05-20T13:17:45.742Z,39.13
2019-05-20T13:32:45.724Z,39.54
2019-05-20T13:47:45.851Z,40.96
2019-05-20T14:02:46.038Z,43.70
2019-05-20T14:17:46.626Z,45.49
2019-05-20T14:32:47.411Z,49.96
2019-05-20T14:47:47.597Z,54.43
2019-05-20T15:02:47.715Z,68.20
2019-05-20T15:17:47.910Z,79.19
2019-05-20T15:32:48.084Z,83.05
2019-05-20T15:47:48.229Z,86.44
2019-05-20T16:02:48.454Z,87.08
2019-05-20T16:17:48.887Z,87.98
2019-05-20T16:32:48.738Z,87.46
2019-05-20T16:47:48.929Z,87.77
2019-05-20T17:02:49.132Z,88.31
2019-05-20T17:17:49.253Z,90.26
2019-05-20T17:32:49.479Z,87.59
2019-05-20T17:47:49.613Z,88.28
2019-05-20T18:02:49.761Z,90.03
2019-05-20T18:17:49.911Z,91.63
2019-05-20T18:32:50.091Z,91.27
2019-05-20T18:47:50.212Z,92.82
2019-05-20T19:02:50.434Z,94.59
2019-05-20T19:17:50.550Z,95.23
2019-05-20T19:32:50.736Z,95.98
2019-05-20T19:47:50.879Z,96.19
2019-05-20T20:02:51.023Z,96.80
2019-05-20T20:17:51.167Z,97.20
2019-05-20T20:32:51.282Z,96.65
2019-05-20T20:47:51.409Z,97.56
2019-05-20T21:02:53.606Z,98.16
2019-05-20T21:17:53.753Z,98.16
2019-05-20T21:33:08.247Z,97.25
2019-05-20T21:47:59.143Z,97.30
2019-05-20T22:02:59.295Z,97.14
2019-05-20T22:17:59.417Z,97.14
2019-05-20T22:32:59.678Z,97.63
2019-05-20T22:47:59.859Z,99.04
2019-05-20T23:02:59.976Z,98.22
2019-05-20T23:18:00.198Z,99.08
2019-05-20T23:33:00.352Z,99.99
2019-05-20T23:48:00.508Z,99.99
